Time,TemperatureF,DewpointF,PressureIn,WindDirection,WindDirectionDegrees,WindSpeedMPH,WindSpeedGustMPH,Humidity,HourlyPrecipIn,Conditions,Clouds,dailyrainin,SoftwareType,DateUTC
2013-07-04 00:12:00,66.0,-99.9,-100.00,SE,134,1.0,2.0,-999,0.00,,,0.00,,2013-07-04 05:12:00,
2013-07-04 00:22:00,66.0,-99.9,-100.00,SE,134,1.0,2.0,-999,0.00,,,0.00,,2013-07-04 05:22:00,
2013-07-04 00:43:00,66.0,-99.9,-100.00,ESE,123,1.0,2.0,-999,0.00,,,0.00,,2013-07-04 05:43:00,
2013-07-04 00:52:00,66.0,-99.9,-100.00,ESE,123,1.0,2.0,-999,0.00,,,0.00,,2013-07-04 05:52:00,
2013-07-04 01:11:00,65.0,-99.9,-100.00,SE,124,1.0,2.0,-999,0.00,,,0.00,,2013-07-04 06:11:00,
2013-07-04 01:22:00,65.0,-99.9,-100.00,SE,124,1.0,2.0,-999,0.00,,,0.00,,2013-07-04 06:22:00,
2013-07-04 01:43:00,65.0,-99.9,-100.00,East,88,2.0,3.0,-999,0.00,,,0.00,,2013-07-04 06:43:00,
2013-07-04 01:53:00,65.0,-99.9,-100.00,East,88,2.0,3.0,-999,0.00,,,0.00,,2013-07-04 06:53:00,
2013-07-04 02:12:00,65.0,-99.9,-100.00,East,98,2.0,3.0,-999,0.00,,,0.00,,2013-07-04 07:12:00,
2013-07-04 02:22:00,65.0,-99.9,-100.00,East,98,2.0,3.0,-999,0.00,,,0.00,,2013-07-04 07:22:00,
2013-07-04 02:43:00,65.0,-99.9,-100.00,ESE,103,1.0,2.0,-999,0.00,,,0.00,,2013-07-04 07:43:00,
2013-07-04 02:52:00,65.0,-99.9,-100.00,ESE,103,1.0,2.0,-999,0.00,,,0.00,,2013-07-04 07:52:00,
2013-07-04 03:12:00,65.0,-99.9,-100.00,ESE,123,2.0,3.0,-999,0.00,,,0.00,,2013-07-04 08:12:00,
2013-07-04 03:22:00,65.0,-99.9,-100.00,ESE,123,2.0,3.0,-999,0.00,,,0.00,,2013-07-04 08:22:00,
2013-07-04 03:30:00,64.0,-99.9,-100.00,East,93,4.0,5.0,-999,0.00,,,0.00,,2013-07-04 08:30:00,
2013-07-04 03:43:00,64.0,-99.9,-100.00,ESE,107,3.0,4.0,-999,0.00,,,0.00,,2013-07-04 08:43:00,
2013-07-04 03:53:00,64.0,-99.9,-100.00,ESE,107,3.0,4.0,-999,0.00,,,0.00,,2013-07-04 08:53:00,
2013-07-04 04:11:00,64.0,-99.9,-100.00,East,93,4.0,5.0,-999,0.00,,,0.00,,2013-07-04 09:11:00,
2013-07-04 04:22:00,64.0,-99.9,-100.00,East,93,4.0,5.0,-999,0.00,,,0.00,,2013-07-04 09:22:00,
2013-07-04 05:11:00,64.0,-99.9,-100.00,ESE,116,3.0,4.0,-999,0.00,,,0.00,,2013-07-04 10:11:00,
2013-07-04 05:22:00,64.0,-99.9,-100.00,ESE,116,3.0,4.0,-999,0.00,,,0.00,,2013-07-04 10:22:00,
2013-07-04 05:43:00,63.0,-99.9,-100.00,ESE,106,3.0,4.0,-999,0.00,,,0.00,,2013-07-04 10:43:00,
2013-07-04 05:53:00,63.0,-99.9,-100.00,ESE,106,3.0,4.0,-999,0.00,,,0.00,,2013-07-04 10:53:00,
2013-07-04 06:12:00,63.0,-99.9,-100.00,ESE,105,1.0,3.0,-999,0.00,,,0.00,,2013-07-04 11:12:00,
2013-07-04 06:22:00,63.0,-99.9,-100.00,ESE,105,1.0,3.0,-999,0.00,,,0.00,,2013-07-04 11:22:00,
2013-07-04 06:30:00,65.0,-99.9,-100.00,South,173,1.0,2.0,-999,0.00,,,0.00,,2013-07-04 11:30:00,
2013-07-04 06:43:00,63.0,-99.9,-100.00,ESE,107,1.0,3.0,-999,0.00,,,0.00,,2013-07-04 11:43:00,
2013-07-04 06:53:00,63.0,-99.9,-100.00,ESE,107,1.0,3.0,-999,0.00,,,0.00,,2013-07-04 11:53:00,
2013-07-04 07:12:00,65.0,-99.9,-100.00,South,173,1.0,2.0,-999,0.00,,,0.00,,2013-07-04 12:12:00,
2013-07-04 07:22:00,65.0,-99.9,-100.00,South,173,1.0,2.0,-999,0.00,,,0.00,,2013-07-04 12:22:00,
2013-07-04 07:43:00,65.0,-99.9,-100.00,SSW,203,1.0,3.0,-999,0.00,,,0.00,,2013-07-04 12:43:00,
2013-07-04 07:52:00,65.0,-99.9,-100.00,SSW,203,1.0,3.0,-999,0.00,,,0.00,,2013-07-04 12:52:00,
2013-07-04 08:12:00,66.0,-99.9,-100.00,SW,227,3.0,5.0,-999,0.00,,,0.00,,2013-07-04 13:12:00,
2013-07-04 08:23:00,66.0,-99.9,-100.00,SW,227,3.0,5.0,-999,0.00,,,0.00,,2013-07-04 13:23:00,
2013-07-04 08:43:00,69.0,-99.9,-100.00,SSW,193,1.0,4.0,-999,0.00,,,0.00,,2013-07-04 13:43:00,
2013-07-04 08:53:00,69.0,-99.9,-100.00,SSW,193,1.0,4.0,-999,0.00,,,0.00,,2013-07-04 13:53:00,
2013-07-04 09:12:00,69.0,-99.9,-100.00,SW,219,4.0,6.0,-999,0.00,,,0.00,,2013-07-04 14:12:00,
2013-07-04 09:22:00,69.0,-99.9,-100.00,SW,219,4.0,6.0,-999,0.00,,,0.00,,2013-07-04 14:22:00,
2013-07-04 09:43:00,71.0,-99.9,-100.00,SW,224,3.0,6.0,-999,0.00,,,0.00,,2013-07-04 14:43:00,
2013-07-04 09:53:00,71.0,-99.9,-100.00,SW,224,3.0,6.0,-999,0.00,,,0.00,,2013-07-04 14:53:00,
2013-07-04 10:11:00,72.0,-99.9,-100.00,WSW,237,3.0,5.0,-999,0.00,,,0.00,,2013-07-04 15:11:00,
2013-07-04 10:23:00,72.0,-99.9,-100.00,WSW,237,3.0,5.0,-999,0.00,,,0.00,,2013-07-04 15:23:00,
2013-07-04 10:43:00,75.0,-99.9,-100.00,SW,228,4.0,5.0,-999,0.00,,,0.00,,2013-07-04 15:43:00,
2013-07-04 10:53:00,75.0,-99.9,-100.00,SW,228,4.0,5.0,-999,0.00,,,0.00,,2013-07-04 15:53:00,
2013-07-04 11:11:00,78.0,-99.9,-100.00,SW,231,3.0,4.0,-999,0.00,,,0.00,,2013-07-04 16:11:00,
2013-07-04 11:22:00,78.0,-99.9,-100.00,SW,231,3.0,4.0,-999,0.00,,,0.00,,2013-07-04 16:22:00,
2013-07-04 11:30:00,80.0,-99.9,-100.00,WSW,238,2.0,6.0,-999,0.00,,,0.00,,2013-07-04 16:30:00,
2013-07-04 11:43:00,78.0,-99.9,-100.00,WSW,257,3.0,6.0,-999,0.00,,,0.00,,2013-07-04 16:43:00,
2013-07-04 11:52:00,78.0,-99.9,-100.00,WSW,257,3.0,6.0,-999,0.00,,,0.00,,2013-07-04 16:52:00,
2013-07-04 12:12:00,80.0,-99.9,-100.00,WSW,238,2.0,6.0,-999,0.00,,,0.00,,2013-07-04 17:12:00,
2013-07-04 12:22:00,80.0,-99.9,-100.00,WSW,238,2.0,6.0,-999,0.00,,,0.00,,2013-07-04 17:22:00,
2013-07-04 12:30:00,80.0,-99.9,-100.00,WSW,245,5.0,8.0,-999,0.00,,,0.00,,2013-07-04 17:30:00,
2013-07-04 13:11:00,80.0,-99.9,-100.00,WSW,245,5.0,8.0,-999,0.00,,,0.00,,2013-07-04 18:11:00,
2013-07-04 13:22:00,80.0,-99.9,-100.00,WSW,245,5.0,8.0,-999,0.00,,,0.00,,2013-07-04 18:22:00,
2013-07-04 14:12:00,82.0,-99.9,-100.00,WSW,244,4.0,6.0,-999,0.00,,,0.00,,2013-07-04 19:12:00,
2013-07-04 14:22:00,82.0,-99.9,-100.00,WSW,244,4.0,6.0,-999,0.00,,,0.00,,2013-07-04 19:22:00,
2013-07-04 14:43:00,85.0,-99.9,-100.00,SSE,163,2.0,4.0,-999,0.00,,,0.00,,2013-07-04 19:43:00,
2013-07-04 14:53:00,85.0,-99.9,-100.00,SSE,163,2.0,4.0,-999,0.00,,,0.00,,2013-07-04 19:53:00,
2013-07-04 15:12:00,88.0,-99.9,-100.00,South,180,2.0,6.0,-999,0.00,,,0.00,,2013-07-04 20:12:00,
2013-07-04 15:22:00,88.0,-99.9,-100.00,South,180,2.0,6.0,-999,0.00,,,0.00,,2013-07-04 20:22:00,
2013-07-04 15:42:00,85.0,-99.9,-100.00,South,191,4.0,6.0,-999,0.00,,,0.00,,2013-07-04 20:42:00,
2013-07-04 15:53:00,85.0,-99.9,-100.00,South,191,4.0,6.0,-999,0.00,,,0.00,,2013-07-04 20:53:00,
2013-07-04 16:12:00,85.0,-99.9,-100.00,SSW,193,3.0,8.0,-999,0.00,,,0.00,,2013-07-04 21:12:00,
2013-07-04 16:22:00,85.0,-99.9,-100.00,SSW,193,3.0,8.0,-999,0.00,,,0.00,,2013-07-04 21:22:00,
2013-07-04 16:43:00,86.0,-99.9,-100.00,South,169,4.0,10.0,-999,0.00,,,0.00,,2013-07-04 21:43:00,
2013-07-04 16:53:00,86.0,-99.9,-100.00,South,169,4.0,10.0,-999,0.00,,,0.00,,2013-07-04 21:53:00,
2013-07-04 17:12:00,84.0,-99.9,-100.00,SSW,195,4.0,7.0,-999,0.00,,,0.00,,2013-07-04 22:12:00,
2013-07-04 17:22:00,84.0,-99.9,-100.00,SSW,195,4.0,7.0,-999,0.00,,,0.00,,2013-07-04 22:22:00,
2013-07-04 17:30:00,85.0,-99.9,-100.00,SW,219,5.0,9.0,-999,0.00,,,0.00,,2013-07-04 22:30:00,
2013-07-04 17:43:00,84.0,-99.9,-100.00,SSW,213,4.0,6.0,-999,0.00,,,0.00,,2013-07-04 22:43:00,
2013-07-04 17:52:00,84.0,-99.9,-100.00,SSW,213,4.0,6.0,-999,0.00,,,0.00,,2013-07-04 22:52:00,
2013-07-04 18:12:00,85.0,-99.9,-100.00,SW,219,5.0,9.0,-999,0.00,,,0.00,,2013-07-04 23:12:00,
2013-07-04 18:23:00,85.0,-99.9,-100.00,SW,219,5.0,9.0,-999,0.00,,,0.00,,2013-07-04 23:23:00,
2013-07-04 18:30:00,83.0,-99.9,-100.00,WSW,252,4.0,6.0,-999,0.00,,,0.00,,2013-07-04 23:30:00,
2013-07-04 19:12:00,83.0,-99.9,-100.00,WSW,252,4.0,6.0,-999,0.00,,,0.00,,2013-07-05 00:12:00,
2013-07-04 19:22:00,83.0,-99.9,-100.00,WSW,252,4.0,6.0,-999,0.00,,,0.00,,2013-07-05 00:22:00,
2013-07-04 20:11:00,83.0,-99.9,-100.00,SW,235,3.0,4.0,-999,0.00,,,0.00,,2013-07-05 01:11:00,
2013-07-04 20:22:00,83.0,-99.9,-100.00,SW,235,3.0,4.0,-999,0.00,,,0.00,,2013-07-05 01:22:00,
2013-07-04 20:32:00,82.0,-99.9,-100.00,SSW,208,1.0,3.0,-999,0.00,,,0.00,,2013-07-05 01:32:00,
2013-07-04 20:42:00,82.0,-99.9,-100.00,SSW,208,1.0,3.0,-999,0.00,,,0.00,,2013-07-05 01:42:00,
2013-07-04 20:52:00,82.0,-99.9,-100.00,SSW,208,1.0,3.0,-999,0.00,,,0.00,,2013-07-05 01:52:00,
2013-07-04 21:11:00,79.0,-99.9,-100.00,South,190,0.0,0.0,-999,0.00,,,0.00,,2013-07-05 02:11:00,
2013-07-04 21:22:00,79.0,-99.9,-100.00,South,190,0.0,0.0,-999,0.00,,,0.00,,2013-07-05 02:22:00,
2013-07-04 21:43:00,77.0,-99.9,-100.00,ESE,105,2.0,3.0,-999,0.00,,,0.00,,2013-07-05 02:43:00,
2013-07-04 21:53:00,77.0,-99.9,-100.00,ESE,105,2.0,3.0,-999,0.00,,,0.00,,2013-07-05 02:53:00,
2013-07-04 22:02:00,76.0,-99.9,-100.00,SE,139,1.0,3.0,-999,0.00,,,0.00,,2013-07-05 03:02:00,
2013-07-04 22:11:00,76.0,-99.9,-100.00,SE,139,1.0,3.0,-999,0.00,,,0.00,,2013-07-05 03:11:00,
2013-07-04 22:22:00,76.0,-99.9,-100.00,SE,139,1.0,3.0,-999,0.00,,,0.00,,2013-07-05 03:22:00,
2013-07-04 22:33:00,76.0,-99.9,-100.00,South,183,1.0,3.0,-999,0.00,,,0.00,,2013-07-05 03:33:00,
2013-07-04 22:42:00,76.0,-99.9,-100.00,South,183,1.0,3.0,-999,0.00,,,0.00,,2013-07-05 03:42:00,
2013-07-04 22:52:00,76.0,-99.9,-100.00,South,183,1.0,3.0,-999,0.00,,,0.00,,2013-07-05 03:52:00,
2013-07-04 23:12:00,75.0,-99.9,-100.00,SE,138,2.0,3.0,-999,0.00,,,0.00,,2013-07-05 04:12:00,
2013-07-04 23:22:00,75.0,-99.9,-100.00,SE,138,2.0,3.0,-999,0.00,,,0.00,,2013-07-05 04:22:00,
2013-07-04 23:43:00,74.0,-99.9,-100.00,SSE,148,1.0,3.0,-999,0.00,,,0.00,,2013-07-05 04:43:00,
2013-07-04 23:53:00,74.0,-99.9,-100.00,SSE,148,1.0,3.0,-999,0.00,,,0.00,,2013-07-05 04:53:00,